Main page
Satellite images 15-day forecastsClimateCyclones Lightning AirportsFAQ Newsletter About
Weather : Europe Africa North America South America Asia Australia-Oceania Others
Languages Contact

Liège, Belgium

Bierset

latitude: 50-39N, longitude: 005-27E, elevation: 186 m


METAR: EBLG 161550Z 03008KT 360V060 CAVOK 14/M00 Q1027 NOSIG
short-TAF: out of date (36675 hours)
long-TAF: EBLG 161110Z 1612/1718 12005KT CAVOK

Time: 17:59 (15:59 UTC)

Current weather observation

The report was made 9 minutes ago, at 15:50 UTC  
Wind 08 kt from north/northeast, varying between north and east/northeast
Temperature 14°C
Humidity 38%
Pressure 1027 hPa
Visibility 10 km or more
no clouds below 1500 m and no cumulonimbus

Change units

Forecast

The report was made 4 hours and 32 minutes ago, at 11:27 UTC  
Forecast valid from 16 at 12 UTC to 17 at 18 UTC
Wind 05 kt from east/southeast
Visibility 10 km or more
no clouds below 1500 m and no cumulonimbus
The information on this site is subject to a disclaimer
Weather : Europe Africa North America South America Asia Australia-Oceania Others
Satellite images 15-day forecastsClimateCyclones Lightning AirportsFAQ Languages Contact Newsletter About